createdAt,value
2023-01-19T00:04:21.582Z,1.61
2023-01-19T00:09:33.493Z,1.61
2023-01-19T00:14:40.560Z,1.62
2023-01-19T00:19:49.136Z,1.64
2023-01-19T00:24:56.820Z,1.65
2023-01-19T00:30:04.259Z,1.66
2023-01-19T00:35:13.531Z,1.65
2023-01-19T00:40:24.157Z,1.66
2023-01-19T00:45:32.574Z,1.69
2023-01-19T00:50:39.791Z,1.71
2023-01-19T00:55:47.291Z,1.72
2023-01-19T01:00:58.013Z,1.72
2023-01-19T01:06:08.292Z,1.73
2023-01-19T01:11:15.768Z,1.75
2023-01-19T01:16:23.251Z,1.75
2023-01-19T01:21:30.182Z,1.73
2023-01-19T01:26:37.851Z,1.70
2023-01-19T01:31:44.783Z,1.66
2023-01-19T01:36:51.791Z,1.60
2023-01-19T01:41:58.633Z,1.55
2023-01-19T01:47:06.018Z,1.50
2023-01-19T01:52:15.138Z,1.45
2023-01-19T01:57:23.201Z,1.42
2023-01-19T02:02:52.239Z,1.39
2023-01-19T02:08:26.412Z,1.38
2023-01-19T02:13:45.645Z,1.35
2023-01-19T02:18:53.227Z,1.32
2023-01-19T02:24:03.218Z,1.31
2023-01-19T02:29:13.180Z,1.30
2023-01-19T02:34:22.769Z,1.28
2023-01-19T02:39:34.285Z,1.28
2023-01-19T02:44:44.954Z,1.27
2023-01-19T02:49:59.160Z,1.26
2023-01-19T02:55:15.373Z,1.24
2023-01-19T03:00:33.779Z,1.23
2023-01-19T03:05:54.911Z,1.19
2023-01-19T03:11:05.631Z,1.18
2023-01-19T03:16:21.836Z,1.16
2023-01-19T03:21:31.856Z,1.14
2023-01-19T03:26:43.161Z,1.12
2023-01-19T03:31:53.259Z,1.09
2023-01-19T03:37:04.752Z,1.09
2023-01-19T03:42:14.910Z,1.08
2023-01-19T03:47:22.745Z,1.08
2023-01-19T03:52:34.307Z,1.06
2023-01-19T03:57:41.298Z,1.05
2023-01-19T04:02:48.352Z,1.06
2023-01-19T04:07:55.526Z,1.06
2023-01-19T04:13:03.792Z,1.06
2023-01-19T04:18:11.013Z,1.03
2023-01-19T04:23:18.087Z,1.01
2023-01-19T04:28:25.060Z,1.01
2023-01-19T04:33:32.181Z,0.99
2023-01-19T04:38:39.494Z,0.98
2023-01-19T04:43:47.801Z,0.99
2023-01-19T04:48:54.673Z,1.01
2023-01-19T04:54:01.733Z,1.02
2023-01-19T04:59:08.729Z,1.05
2023-01-19T05:04:15.700Z,1.07
2023-01-19T05:09:22.842Z,1.08
2023-01-19T05:14:29.838Z,1.10
2023-01-19T05:19:36.903Z,1.09
2023-01-19T05:24:44.185Z,1.09
2023-01-19T05:29:51.188Z,1.11
2023-01-19T05:34:58.160Z,1.12
2023-01-19T05:40:05.633Z,1.14
2023-01-19T05:45:13.537Z,1.14
2023-01-19T05:50:20.838Z,1.14
2023-01-19T05:55:32.621Z,1.11
2023-01-19T06:00:39.789Z,1.11
2023-01-19T06:05:46.815Z,1.12
2023-01-19T06:10:53.891Z,1.15
2023-01-19T06:16:04.972Z,1.15
2023-01-19T06:21:14.333Z,1.15
2023-01-19T06:26:21.407Z,1.15
2023-01-19T06:31:28.422Z,1.15
2023-01-19T06:36:36.179Z,1.12
2023-01-19T06:41:43.734Z,1.13
2023-01-19T06:46:50.752Z,1.14
2023-01-19T06:51:57.737Z,1.15
2023-01-19T06:57:04.727Z,1.17
2023-01-19T07:02:27.225Z,1.16
2023-01-19T07:07:35.879Z,1.16
2023-01-19T07:12:44.227Z,1.14
2023-01-19T07:17:51.449Z,1.13
2023-01-19T07:22:59.997Z,1.14
2023-01-19T07:28:07.330Z,1.12
2023-01-19T07:33:14.342Z,1.10
2023-01-19T07:38:22.330Z,1.09
2023-01-19T07:43:29.268Z,1.09
2023-01-19T07:48:36.329Z,1.11
2023-01-19T07:53:45.223Z,1.13
2023-01-19T07:58:52.610Z,1.14
2023-01-19T08:03:59.755Z,1.15
2023-01-19T08:09:07.185Z,1.17
2023-01-19T08:14:14.297Z,1.19
2023-01-19T08:19:21.444Z,1.19
2023-01-19T08:24:29.285Z,1.22
2023-01-19T08:29:37.049Z,1.23
2023-01-19T08:34:44.191Z,1.24
2023-01-19T08:39:53.688Z,1.25
2023-01-19T08:45:00.761Z,1.26
2023-01-19T08:50:09.083Z,1.27
2023-01-19T08:55:16.161Z,1.26
2023-01-19T09:00:25.195Z,1.26
2023-01-19T09:05:35.636Z,1.27
2023-01-19T09:10:48.040Z,1.27
2023-01-19T09:15:53.864Z,1.30
2023-01-19T09:21:01.129Z,1.36
2023-01-19T09:26:08.648Z,1.40
2023-01-19T09:31:16.445Z,1.40
2023-01-19T09:36:23.701Z,1.38
2023-01-19T09:41:34.678Z,1.39
2023-01-19T09:46:43.227Z,1.43
2023-01-19T09:51:53.076Z,1.54
2023-01-19T09:57:00.483Z,1.62
2023-01-19T10:02:23.688Z,1.72
2023-01-19T10:07:44.053Z,1.80
2023-01-19T10:13:01.880Z,1.92
2023-01-19T10:18:18.602Z,2.01
2023-01-19T10:23:36.223Z,2.12
2023-01-19T10:28:44.410Z,2.25
2023-01-19T10:34:03.021Z,2.40
2023-01-19T10:39:12.849Z,2.54
2023-01-19T10:44:27.048Z,2.67
2023-01-19T10:49:40.497Z,2.73
2023-01-19T10:54:48.564Z,2.78
2023-01-19T10:59:55.684Z,2.82
2023-01-19T11:05:23.576Z,2.83
2023-01-19T11:10:31.457Z,2.90
2023-01-19T11:15:45.138Z,2.87
2023-01-19T11:20:55.349Z,2.80
2023-01-19T11:26:06.805Z,2.77
2023-01-19T11:31:34.404Z,2.79
2023-01-19T11:36:41.444Z,2.74
2023-01-19T11:41:53.453Z,2.79
2023-01-19T11:47:03.325Z,2.82
2023-01-19T11:52:25.300Z,2.86
2023-01-19T11:57:32.573Z,2.88
2023-01-19T12:02:47.381Z,2.92
2023-01-19T12:07:54.956Z,2.97
2023-01-19T12:13:02.234Z,3.05
2023-01-19T12:18:14.079Z,3.43
2023-01-19T12:23:31.192Z,4.67
2023-01-19T12:28:42.498Z,5.45
2023-01-19T12:33:50.117Z,6.02
2023-01-19T12:38:59.266Z,5.93
2023-01-19T12:44:23.265Z,5.47
2023-01-19T12:49:34.446Z,5.35
2023-01-19T12:54:44.945Z,5.38
2023-01-19T12:59:59.534Z,5.24
2023-01-19T13:05:58.053Z,5.15
2023-01-19T13:11:27.268Z,5.00
2023-01-19T13:17:01.032Z,4.83
2023-01-19T13:22:34.983Z,4.74
2023-01-19T13:27:43.320Z,4.64
2023-01-19T13:32:50.699Z,4.49
2023-01-19T13:37:59.464Z,4.36
2023-01-19T13:43:17.717Z,4.27
2023-01-19T13:48:26.777Z,4.16
2023-01-19T13:53:34.401Z,4.09
2023-01-19T13:58:41.418Z,3.99
2023-01-19T14:03:55.019Z,3.96
2023-01-19T14:09:17.941Z,3.91
2023-01-19T14:14:29.583Z,3.89
2023-01-19T14:25:27.279Z,3.79
2023-01-19T14:30:36.845Z,3.70
2023-01-19T14:35:43.957Z,3.53
2023-01-19T14:40:51.022Z,3.36
2023-01-19T14:45:59.307Z,3.20
2023-01-19T14:51:07.423Z,2.99
2023-01-19T14:56:25.481Z,2.78
2023-01-19T15:01:36.592Z,2.58
2023-01-19T15:06:45.962Z,2.40
2023-01-19T15:11:54.322Z,2.14
2023-01-19T15:17:01.537Z,1.88
2023-01-19T15:22:14.939Z,1.66
2023-01-19T15:27:23.392Z,1.41
2023-01-19T15:32:30.462Z,1.15
2023-01-19T15:37:37.340Z,0.86
2023-01-19T15:42:44.552Z,0.61
2023-01-19T15:47:51.453Z,0.40
2023-01-19T15:52:58.495Z,0.14
2023-01-19T15:58:05.701Z,-0.15
2023-01-19T16:03:13.134Z,-0.29
2023-01-19T16:08:21.315Z,-0.44
2023-01-19T16:13:30.087Z,-0.63
2023-01-19T16:18:37.549Z,-0.79
2023-01-19T16:23:44.576Z,-0.94
2023-01-19T16:28:51.632Z,-1.09
2023-01-19T16:33:59.151Z,-1.24
2023-01-19T16:39:08.692Z,-1.33
2023-01-19T16:44:18.286Z,-1.41
2023-01-19T16:49:28.559Z,-1.50
2023-01-19T16:54:38.506Z,-1.61
2023-01-19T16:59:48.114Z,-1.69
2023-01-19T17:04:55.708Z,-1.78
2023-01-19T17:10:03.770Z,-1.84
2023-01-19T17:15:13.449Z,-1.90
2023-01-19T17:20:22.846Z,-1.94
2023-01-19T17:25:32.742Z,-1.93
2023-01-19T17:30:44.023Z,-1.98
2023-01-19T17:35:52.960Z,-2.07
2023-01-19T17:41:01.032Z,-2.16
2023-01-19T17:46:10.321Z,-2.25
2023-01-19T17:51:19.884Z,-2.33
2023-01-19T17:56:30.121Z,-2.42
2023-01-19T18:01:40.500Z,-2.50
2023-01-19T18:06:49.660Z,-2.58
2023-01-19T18:11:57.279Z,-2.68
2023-01-19T18:17:05.589Z,-2.76
2023-01-19T18:22:12.744Z,-2.85
2023-01-19T18:27:22.063Z,-2.94
2023-01-19T18:32:32.449Z,-2.96
2023-01-19T18:37:40.983Z,-2.97
2023-01-19T18:42:51.644Z,-2.93
2023-01-19T18:48:11.774Z,-2.93
2023-01-19T18:59:14.177Z,-3.04
2023-01-19T19:04:24.386Z,-3.05
2023-01-19T19:09:34.801Z,-3.07
2023-01-19T19:14:42.868Z,-3.12
2023-01-19T19:19:50.009Z,-3.23
2023-01-19T19:25:02.157Z,-3.32
2023-01-19T19:30:26.178Z,-3.38
2023-01-19T19:40:57.729Z,-3.53
2023-01-19T19:46:18.646Z,-3.64
2023-01-19T19:51:37.660Z,-3.68
2023-01-19T19:56:46.220Z,-3.74
2023-01-19T20:02:05.977Z,-3.77
2023-01-19T20:07:18.638Z,-3.67
2023-01-19T20:12:39.895Z,-3.56
2023-01-19T20:17:53.602Z,-3.46
2023-01-19T20:23:24.193Z,-3.44
2023-01-19T20:28:41.126Z,-3.53
2023-01-19T20:34:00.410Z,-3.60
2023-01-19T20:39:10.490Z,-3.67
2023-01-19T20:44:22.370Z,-3.71
2023-01-19T20:49:45.529Z,-3.70
2023-01-19T20:54:53.955Z,-3.64
2023-01-19T21:00:19.138Z,-3.60
2023-01-19T21:05:38.069Z,-3.58
2023-01-19T21:10:51.291Z,-3.61
2023-01-19T21:16:07.649Z,-3.64
2023-01-19T21:21:31.112Z,-3.65
2023-01-19T21:26:56.482Z,-3.60
2023-01-19T21:32:07.383Z,-3.57
2023-01-19T21:37:16.133Z,-3.52
2023-01-19T21:42:38.864Z,-3.51
2023-01-19T21:47:51.828Z,-3.48
2023-01-19T21:53:01.274Z,-3.43
2023-01-19T21:58:10.359Z,-3.41
2023-01-19T22:03:25.707Z,-3.37
2023-01-19T22:08:41.073Z,-3.35
2023-01-19T22:13:52.275Z,-3.35
2023-01-19T22:19:05.013Z,-3.32
2023-01-19T22:24:18.787Z,-3.27
2023-01-19T22:29:37.810Z,-3.21
2023-01-19T22:34:49.289Z,-3.17
2023-01-19T22:39:59.307Z,-3.14
2023-01-19T22:45:07.039Z,-3.11
2023-01-19T22:50:14.703Z,-3.09
2023-01-19T22:55:21.653Z,-3.09
2023-01-19T23:00:28.807Z,-3.09
2023-01-19T23:05:39.398Z,-3.05
2023-01-19T23:10:46.606Z,-2.99
2023-01-19T23:15:53.695Z,-2.95
2023-01-19T23:21:05.474Z,-2.92
2023-01-19T23:26:14.713Z,-2.94
2023-01-19T23:31:23.671Z,-2.96
2023-01-19T23:36:33.165Z,-2.96
2023-01-19T23:41:40.273Z,-2.99
2023-01-19T23:46:48.165Z,-2.99
2023-01-19T23:51:55.403Z,-3.00
2023-01-19T23:57:02.368Z,-3.02
